sensor_id;sensor_type;location;lat;lon;timestamp;P1;durP1;ratioP1;P2;durP2;ratioP2
60030;SDS011;45901;47.600;9.890;2024-03-25T00:01:09;2.93;;;1.40;;
60030;SDS011;45901;47.600;9.890;2024-03-25T00:03:37;4.73;;;1.30;;
60030;SDS011;45901;47.600;9.890;2024-03-25T00:06:04;9.43;;;2.03;;
60030;SDS011;45901;47.600;9.890;2024-03-25T00:08:32;4.53;;;1.60;;
60030;SDS011;45901;47.600;9.890;2024-03-25T00:11:00;3.93;;;1.27;;
60030;SDS011;45901;47.600;9.890;2024-03-25T00:13:27;3.10;;;1.20;;
60030;SDS011;45901;47.600;9.890;2024-03-25T00:15:53;2.70;;;1.20;;
60030;SDS011;45901;47.600;9.890;2024-03-25T00:18:21;5.33;;;1.47;;
60030;SDS011;45901;47.600;9.890;2024-03-25T00:20:47;3.13;;;1.00;;
60030;SDS011;45901;47.600;9.890;2024-03-25T00:23:14;1.97;;;1.10;;
60030;SDS011;45901;47.600;9.890;2024-03-25T00:25:40;1.83;;;1.00;;
60030;SDS011;45901;47.600;9.890;2024-03-25T00:28:09;2.43;;;1.10;;
60030;SDS011;45901;47.600;9.890;2024-03-25T00:30:35;2.87;;;1.10;;
60030;SDS011;45901;47.600;9.890;2024-03-25T00:33:02;1.57;;;1.00;;
60030;SDS011;45901;47.600;9.890;2024-03-25T00:35:29;2.47;;;0.90;;
60030;SDS011;45901;47.600;9.890;2024-03-25T00:37:57;2.10;;;1.27;;
60030;SDS011;45901;47.600;9.890;2024-03-25T00:40:24;2.80;;;1.10;;
60030;SDS011;45901;47.600;9.890;2024-03-25T00:42:51;1.70;;;1.00;;
60030;SDS011;45901;47.600;9.890;2024-03-25T00:45:19;1.83;;;1.00;;
60030;SDS011;45901;47.600;9.890;2024-03-25T00:47:47;2.70;;;0.90;;
60030;SDS011;45901;47.600;9.890;2024-03-25T00:50:13;3.43;;;1.10;;
60030;SDS011;45901;47.600;9.890;2024-03-25T00:52:42;3.17;;;1.27;;
60030;SDS011;45901;47.600;9.890;2024-03-25T00:55:08;3.53;;;1.10;;
60030;SDS011;45901;47.600;9.890;2024-03-25T00:57:35;3.43;;;1.30;;
60030;SDS011;45901;47.600;9.890;2024-03-25T01:00:02;1.57;;;1.20;;
60030;SDS011;45901;47.600;9.890;2024-03-25T01:02:31;2.90;;;0.90;;
60030;SDS011;45901;47.600;9.890;2024-03-25T01:04:58;2.17;;;1.07;;
60030;SDS011;45901;47.600;9.890;2024-03-25T01:07:26;2.30;;;0.87;;
60030;SDS011;45901;47.600;9.890;2024-03-25T01:09:52;1.90;;;0.90;;
60030;SDS011;45901;47.600;9.890;2024-03-25T01:12:20;1.03;;;0.93;;
60030;SDS011;45901;47.600;9.890;2024-03-25T01:14:46;2.03;;;1.10;;
60030;SDS011;45901;47.600;9.890;2024-03-25T01:17:13;3.87;;;1.27;;
60030;SDS011;45901;47.600;9.890;2024-03-25T01:19:41;2.90;;;0.97;;
60030;SDS011;45901;47.600;9.890;2024-03-25T01:22:08;4.17;;;1.17;;
60030;SDS011;45901;47.600;9.890;2024-03-25T01:24:34;1.33;;;0.90;;
60030;SDS011;45901;47.600;9.890;2024-03-25T01:27:02;2.50;;;1.07;;
60030;SDS011;45901;47.600;9.890;2024-03-25T01:29:29;3.57;;;1.03;;
60030;SDS011;45901;47.600;9.890;2024-03-25T01:31:56;1.97;;;1.20;;
60030;SDS011;45901;47.600;9.890;2024-03-25T01:34:23;2.77;;;1.10;;
60030;SDS011;45901;47.600;9.890;2024-03-25T01:36:52;5.23;;;1.53;;
60030;SDS011;45901;47.600;9.890;2024-03-25T01:39:19;4.83;;;1.20;;
60030;SDS011;45901;47.600;9.890;2024-03-25T01:41:46;2.10;;;1.27;;
60030;SDS011;45901;47.600;9.890;2024-03-25T01:44:12;2.23;;;1.10;;
60030;SDS011;45901;47.600;9.890;2024-03-25T01:46:40;5.17;;;1.20;;
60030;SDS011;45901;47.600;9.890;2024-03-25T01:49:08;2.63;;;1.20;;
60030;SDS011;45901;47.600;9.890;2024-03-25T01:51:35;2.03;;;1.17;;
60030;SDS011;45901;47.600;9.890;2024-03-25T01:54:04;2.70;;;1.33;;
60030;SDS011;45901;47.600;9.890;2024-03-25T01:56:33;1.30;;;0.97;;
60030;SDS011;45901;47.600;9.890;2024-03-25T01:59:02;2.77;;;1.27;;
60030;SDS011;45901;47.600;9.890;2024-03-25T02:01:29;3.30;;;1.13;;
60030;SDS011;45901;47.600;9.890;2024-03-25T02:03:56;2.70;;;1.30;;
60030;SDS011;45901;47.600;9.890;2024-03-25T02:06:24;4.57;;;1.43;;
60030;SDS011;45901;47.600;9.890;2024-03-25T02:08:52;2.63;;;1.33;;
60030;SDS011;45901;47.600;9.890;2024-03-25T02:11:22;3.17;;;1.50;;
60030;SDS011;45901;47.600;9.890;2024-03-25T02:13:50;3.10;;;1.43;;
60030;SDS011;45901;47.600;9.890;2024-03-25T02:16:17;2.43;;;1.13;;
60030;SDS011;45901;47.600;9.890;2024-03-25T02:18:44;6.13;;;1.87;;
60030;SDS011;45901;47.600;9.890;2024-03-25T02:21:11;4.33;;;1.67;;
60030;SDS011;45901;47.600;9.890;2024-03-25T02:23:37;2.70;;;1.53;;
60030;SDS011;45901;47.600;9.890;2024-03-25T02:26:10;3.13;;;1.50;;
60030;SDS011;45901;47.600;9.890;2024-03-25T02:28:36;5.73;;;1.30;;
60030;SDS011;45901;47.600;9.890;2024-03-25T02:31:03;3.13;;;1.30;;
60030;SDS011;45901;47.600;9.890;2024-03-25T02:33:29;4.70;;;1.80;;
60030;SDS011;45901;47.600;9.890;2024-03-25T02:35:56;3.47;;;1.37;;
60030;SDS011;45901;47.600;9.890;2024-03-25T02:38:23;4.83;;;1.30;;
60030;SDS011;45901;47.600;9.890;2024-03-25T02:40:50;2.83;;;1.53;;
60030;SDS011;45901;47.600;9.890;2024-03-25T02:43:18;4.40;;;1.50;;
60030;SDS011;45901;47.600;9.890;2024-03-25T02:45:46;3.27;;;1.50;;
60030;SDS011;45901;47.600;9.890;2024-03-25T02:48:13;1.83;;;1.20;;
60030;SDS011;45901;47.600;9.890;2024-03-25T02:50:40;3.40;;;1.30;;
60030;SDS011;45901;47.600;9.890;2024-03-25T02:53:07;1.83;;;1.00;;
60030;SDS011;45901;47.600;9.890;2024-03-25T02:55:34;1.57;;;1.17;;
60030;SDS011;45901;47.600;9.890;2024-03-25T02:58:00;1.90;;;1.13;;
60030;SDS011;45901;47.600;9.890;2024-03-25T03:00:28;3.17;;;1.00;;
60030;SDS011;45901;47.600;9.890;2024-03-25T03:02:55;2.37;;;1.20;;
60030;SDS011;45901;47.600;9.890;2024-03-25T03:05:22;3.47;;;1.40;;
60030;SDS011;45901;47.600;9.890;2024-03-25T03:07:48;2.80;;;1.00;;
60030;SDS011;45901;47.600;9.890;2024-03-25T03:10:15;6.57;;;1.30;;
60030;SDS011;45901;47.600;9.890;2024-03-25T03:12:41;4.33;;;1.20;;
60030;SDS011;45901;47.600;9.890;2024-03-25T03:15:09;1.60;;;0.80;;
60030;SDS011;45901;47.600;9.890;2024-03-25T03:17:36;3.83;;;1.20;;
60030;SDS011;45901;47.600;9.890;2024-03-25T03:20:04;3.03;;;1.10;;
60030;SDS011;45901;47.600;9.890;2024-03-25T03:22:31;2.97;;;0.80;;
60030;SDS011;45901;47.600;9.890;2024-03-25T03:24:59;1.10;;;0.90;;
60030;SDS011;45901;47.600;9.890;2024-03-25T03:27:25;1.33;;;1.03;;
60030;SDS011;45901;47.600;9.890;2024-03-25T03:29:52;2.50;;;0.90;;
60030;SDS011;45901;47.600;9.890;2024-03-25T03:32:18;2.80;;;1.00;;
60030;SDS011;45901;47.600;9.890;2024-03-25T03:34:47;1.67;;;0.90;;
60030;SDS011;45901;47.600;9.890;2024-03-25T03:37:13;3.13;;;1.10;;
60030;SDS011;45901;47.600;9.890;2024-03-25T03:39:40;2.27;;;1.20;;
60030;SDS011;45901;47.600;9.890;2024-03-25T03:42:06;3.70;;;1.30;;
60030;SDS011;45901;47.600;9.890;2024-03-25T03:44:34;4.17;;;1.20;;
60030;SDS011;45901;47.600;9.890;2024-03-25T03:47:00;3.17;;;0.90;;
60030;SDS011;45901;47.600;9.890;2024-03-25T03:49:27;1.43;;;1.03;;
60030;SDS011;45901;47.600;9.890;2024-03-25T03:51:55;1.83;;;1.10;;
60030;SDS011;45901;47.600;9.890;2024-03-25T03:54:22;3.07;;;1.30;;
60030;SDS011;45901;47.600;9.890;2024-03-25T03:56:48;6.30;;;1.30;;
60030;SDS011;45901;47.600;9.890;2024-03-25T03:59:15;2.03;;;1.00;;
60030;SDS011;45901;47.600;9.890;2024-03-25T04:01:41;1.90;;;0.90;;
60030;SDS011;45901;47.600;9.890;2024-03-25T04:04:10;1.57;;;1.00;;
60030;SDS011;45901;47.600;9.890;2024-03-25T04:06:37;1.27;;;0.97;;
60030;SDS011;45901;47.600;9.890;2024-03-25T04:09:06;2.53;;;1.40;;
60030;SDS011;45901;47.600;9.890;2024-03-25T04:11:35;2.90;;;1.10;;
60030;SDS011;45901;47.600;9.890;2024-03-25T04:14:02;2.27;;;1.00;;
60030;SDS011;45901;47.600;9.890;2024-03-25T04:16:28;2.00;;;0.90;;
60030;SDS011;45901;47.600;9.890;2024-03-25T04:18:56;3.47;;;1.07;;
60030;SDS011;45901;47.600;9.890;2024-03-25T04:21:23;1.77;;;0.90;;
60030;SDS011;45901;47.600;9.890;2024-03-25T04:23:50;1.30;;;0.77;;
60030;SDS011;45901;47.600;9.890;2024-03-25T04:26:18;2.73;;;1.33;;
60030;SDS011;45901;47.600;9.890;2024-03-25T04:28:45;3.10;;;1.20;;
60030;SDS011;45901;47.600;9.890;2024-03-25T04:31:11;6.70;;;2.40;;
60030;SDS011;45901;47.600;9.890;2024-03-25T04:33:38;3.30;;;1.23;;
60030;SDS011;45901;47.600;9.890;2024-03-25T04:36:04;2.67;;;1.13;;
60030;SDS011;45901;47.600;9.890;2024-03-25T04:38:32;1.87;;;1.00;;
60030;SDS011;45901;47.600;9.890;2024-03-25T04:40:59;2.50;;;1.20;;
60030;SDS011;45901;47.600;9.890;2024-03-25T04:43:26;3.40;;;1.10;;
60030;SDS011;45901;47.600;9.890;2024-03-25T04:45:53;2.93;;;1.00;;
60030;SDS011;45901;47.600;9.890;2024-03-25T04:48:19;1.73;;;1.10;;
60030;SDS011;45901;47.600;9.890;2024-03-25T04:50:45;5.83;;;1.13;;
60030;SDS011;45901;47.600;9.890;2024-03-25T04:53:11;1.47;;;0.70;;
60030;SDS011;45901;47.600;9.890;2024-03-25T04:55:38;3.10;;;0.90;;
60030;SDS011;45901;47.600;9.890;2024-03-25T04:58:04;1.70;;;0.90;;
60030;SDS011;45901;47.600;9.890;2024-03-25T05:00:31;2.03;;;1.10;;
60030;SDS011;45901;47.600;9.890;2024-03-25T05:02:58;3.37;;;1.20;;
60030;SDS011;45901;47.600;9.890;2024-03-25T05:05:24;1.97;;;1.37;;
60030;SDS011;45901;47.600;9.890;2024-03-25T05:07:50;2.00;;;1.17;;
60030;SDS011;45901;47.600;9.890;2024-03-25T05:10:16;2.57;;;1.20;;
60030;SDS011;45901;47.600;9.890;2024-03-25T05:12:43;2.70;;;1.20;;
60030;SDS011;45901;47.600;9.890;2024-03-25T05:15:09;1.63;;;1.33;;
60030;SDS011;45901;47.600;9.890;2024-03-25T05:17:37;1.70;;;1.13;;
60030;SDS011;45901;47.600;9.890;2024-03-25T05:20:04;5.83;;;1.60;;
60030;SDS011;45901;47.600;9.890;2024-03-25T05:22:31;2.00;;;1.57;;
60030;SDS011;45901;47.600;9.890;2024-03-25T05:24:57;2.80;;;1.50;;
60030;SDS011;45901;47.600;9.890;2024-03-25T05:27:24;2.47;;;1.30;;
60030;SDS011;45901;47.600;9.890;2024-03-25T05:29:51;2.50;;;1.50;;
60030;SDS011;45901;47.600;9.890;2024-03-25T05:32:17;1.87;;;1.23;;
60030;SDS011;45901;47.600;9.890;2024-03-25T05:34:44;2.90;;;1.13;;
60030;SDS011;45901;47.600;9.890;2024-03-25T05:37:11;2.30;;;1.30;;
60030;SDS011;45901;47.600;9.890;2024-03-25T05:39:37;2.83;;;1.13;;
60030;SDS011;45901;47.600;9.890;2024-03-25T05:42:03;2.27;;;0.90;;
60030;SDS011;45901;47.600;9.890;2024-03-25T05:44:30;3.23;;;0.97;;
60030;SDS011;45901;47.600;9.890;2024-03-25T05:46:56;4.23;;;1.50;;
60030;SDS011;45901;47.600;9.890;2024-03-25T05:49:22;3.17;;;1.37;;
60030;SDS011;45901;47.600;9.890;2024-03-25T05:51:50;3.33;;;1.40;;
60030;SDS011;45901;47.600;9.890;2024-03-25T05:54:17;13.23;;;6.53;;
60030;SDS011;45901;47.600;9.890;2024-03-25T05:56:43;24.50;;;14.10;;
60030;SDS011;45901;47.600;9.890;2024-03-25T05:59:09;8.50;;;4.80;;
60030;SDS011;45901;47.600;9.890;2024-03-25T06:01:35;5.67;;;1.60;;
60030;SDS011;45901;47.600;9.890;2024-03-25T06:04:05;4.30;;;1.27;;
60030;SDS011;45901;47.600;9.890;2024-03-25T06:06:31;7.03;;;3.77;;
60030;SDS011;45901;47.600;9.890;2024-03-25T06:08:58;5.87;;;2.50;;
60030;SDS011;45901;47.600;9.890;2024-03-25T06:11:25;5.30;;;2.10;;
60030;SDS011;45901;47.600;9.890;2024-03-25T06:13:51;4.03;;;1.83;;
60030;SDS011;45901;47.600;9.890;2024-03-25T06:16:18;3.63;;;1.20;;
60030;SDS011;45901;47.600;9.890;2024-03-25T06:18:44;3.17;;;1.80;;
60030;SDS011;45901;47.600;9.890;2024-03-25T06:21:10;3.07;;;1.70;;
60030;SDS011;45901;47.600;9.890;2024-03-25T06:23:37;6.63;;;2.30;;
60030;SDS011;45901;47.600;9.890;2024-03-25T06:26:05;4.77;;;2.07;;
60030;SDS011;45901;47.600;9.890;2024-03-25T06:28:31;3.53;;;1.83;;
60030;SDS011;45901;47.600;9.890;2024-03-25T06:30:57;5.00;;;2.20;;
60030;SDS011;45901;47.600;9.890;2024-03-25T06:33:42;5.60;;;2.67;;
60030;SDS011;45901;47.600;9.890;2024-03-25T06:36:27;3.57;;;1.97;;
60030;SDS011;45901;47.600;9.890;2024-03-25T06:38:53;4.47;;;2.10;;
60030;SDS011;45901;47.600;9.890;2024-03-25T06:41:21;8.13;;;3.60;;
60030;SDS011;45901;47.600;9.890;2024-03-25T06:43:47;3.63;;;1.77;;
60030;SDS011;45901;47.600;9.890;2024-03-25T06:46:13;2.37;;;1.40;;
60030;SDS011;45901;47.600;9.890;2024-03-25T06:48:39;6.17;;;1.67;;
60030;SDS011;45901;47.600;9.890;2024-03-25T06:51:06;2.83;;;1.90;;
60030;SDS011;45901;47.600;9.890;2024-03-25T06:53:32;3.60;;;1.93;;
60030;SDS011;45901;47.600;9.890;2024-03-25T06:55:59;2.10;;;1.63;;
60030;SDS011;45901;47.600;9.890;2024-03-25T06:58:27;2.30;;;1.40;;
60030;SDS011;45901;47.600;9.890;2024-03-25T07:00:54;2.33;;;1.40;;
60030;SDS011;45901;47.600;9.890;2024-03-25T07:03:22;2.73;;;1.50;;
60030;SDS011;45901;47.600;9.890;2024-03-25T07:05:50;1.77;;;1.20;;
60030;SDS011;45901;47.600;9.890;2024-03-25T07:08:17;2.20;;;1.50;;
60030;SDS011;45901;47.600;9.890;2024-03-25T07:10:44;1.93;;;1.30;;
60030;SDS011;45901;47.600;9.890;2024-03-25T07:13:10;2.40;;;1.03;;
60030;SDS011;45901;47.600;9.890;2024-03-25T07:15:38;4.00;;;1.17;;
60030;SDS011;45901;47.600;9.890;2024-03-25T07:18:05;1.60;;;0.83;;
60030;SDS011;45901;47.600;9.890;2024-03-25T07:20:31;2.93;;;1.20;;
60030;SDS011;45901;47.600;9.890;2024-03-25T07:22:58;4.10;;;1.27;;
60030;SDS011;45901;47.600;9.890;2024-03-25T07:25:25;2.73;;;1.23;;
60030;SDS011;45901;47.600;9.890;2024-03-25T07:27:51;2.27;;;1.10;;
60030;SDS011;45901;47.600;9.890;2024-03-25T07:30:18;1.73;;;0.90;;
60030;SDS011;45901;47.600;9.890;2024-03-25T07:32:46;3.50;;;1.40;;
60030;SDS011;45901;47.600;9.890;2024-03-25T07:35:12;4.17;;;1.17;;
60030;SDS011;45901;47.600;9.890;2024-03-25T07:37:38;3.97;;;2.03;;
60030;SDS011;45901;47.600;9.890;2024-03-25T07:40:05;2.67;;;1.00;;
60030;SDS011;45901;47.600;9.890;2024-03-25T07:42:34;3.23;;;1.10;;
60030;SDS011;45901;47.600;9.890;2024-03-25T07:45:00;4.10;;;1.20;;
60030;SDS011;45901;47.600;9.890;2024-03-25T07:47:27;2.60;;;0.97;;
60030;SDS011;45901;47.600;9.890;2024-03-25T07:49:54;2.83;;;0.97;;
60030;SDS011;45901;47.600;9.890;2024-03-25T07:52:21;2.03;;;1.23;;
60030;SDS011;45901;47.600;9.890;2024-03-25T07:54:47;1.93;;;1.00;;
60030;SDS011;45901;47.600;9.890;2024-03-25T07:57:13;3.90;;;1.00;;
60030;SDS011;45901;47.600;9.890;2024-03-25T07:59:39;2.77;;;1.03;;
60030;SDS011;45901;47.600;9.890;2024-03-25T08:02:06;1.70;;;1.00;;
60030;SDS011;45901;47.600;9.890;2024-03-25T08:04:32;2.97;;;1.23;;
60030;SDS011;45901;47.600;9.890;2024-03-25T08:06:59;2.00;;;1.30;;
60030;SDS011;45901;47.600;9.890;2024-03-25T08:09:26;3.03;;;1.60;;
60030;SDS011;45901;47.600;9.890;2024-03-25T08:11:52;3.03;;;1.07;;
60030;SDS011;45901;47.600;9.890;2024-03-25T08:14:18;2.07;;;0.83;;
60030;SDS011;45901;47.600;9.890;2024-03-25T08:16:44;4.47;;;1.03;;
60030;SDS011;45901;47.600;9.890;2024-03-25T08:19:11;2.33;;;1.10;;
60030;SDS011;45901;47.600;9.890;2024-03-25T08:21:37;3.20;;;1.30;;
60030;SDS011;45901;47.600;9.890;2024-03-25T08:24:05;4.17;;;1.30;;
60030;SDS011;45901;47.600;9.890;2024-03-25T08:26:32;3.67;;;1.37;;
60030;SDS011;45901;47.600;9.890;2024-03-25T08:28:58;3.00;;;1.13;;
60030;SDS011;45901;47.600;9.890;2024-03-25T08:31:24;2.07;;;1.10;;
60030;SDS011;45901;47.600;9.890;2024-03-25T08:33:51;3.10;;;1.30;;
60030;SDS011;45901;47.600;9.890;2024-03-25T08:36:17;3.67;;;1.00;;
60030;SDS011;45901;47.600;9.890;2024-03-25T08:38:43;2.27;;;0.87;;
60030;SDS011;45901;47.600;9.890;2024-03-25T08:41:11;2.13;;;0.80;;
60030;SDS011;45901;47.600;9.890;2024-03-25T08:43:37;5.03;;;1.03;;
60030;SDS011;45901;47.600;9.890;2024-03-25T08:46:04;2.07;;;0.70;;
60030;SDS011;45901;47.600;9.890;2024-03-25T08:48:30;3.13;;;1.00;;
60030;SDS011;45901;47.600;9.890;2024-03-25T08:50:56;2.70;;;0.87;;
60030;SDS011;45901;47.600;9.890;2024-03-25T08:53:22;3.23;;;0.90;;
60030;SDS011;45901;47.600;9.890;2024-03-25T08:55:49;2.13;;;0.80;;
60030;SDS011;45901;47.600;9.890;2024-03-25T08:58:16;3.03;;;0.90;;
60030;SDS011;45901;47.600;9.890;2024-03-25T09:00:43;3.70;;;0.80;;
60030;SDS011;45901;47.600;9.890;2024-03-25T09:03:09;1.60;;;0.50;;
60030;SDS011;45901;47.600;9.890;2024-03-25T09:05:35;3.73;;;0.70;;
60030;SDS011;45901;47.600;9.890;2024-03-25T09:08:02;2.13;;;0.80;;
60030;SDS011;45901;47.600;9.890;2024-03-25T09:10:29;1.30;;;0.73;;
60030;SDS011;45901;47.600;9.890;2024-03-25T09:13:14;0.90;;;0.50;;
60030;SDS011;45901;47.600;9.890;2024-03-25T09:15:42;2.20;;;0.77;;
60030;SDS011;45901;47.600;9.890;2024-03-25T09:18:08;2.27;;;0.83;;
60030;SDS011;45901;47.600;9.890;2024-03-25T09:20:34;3.63;;;1.00;;
60030;SDS011;45901;47.600;9.890;2024-03-25T09:23:00;2.23;;;0.53;;
60030;SDS011;45901;47.600;9.890;2024-03-25T09:25:27;1.90;;;0.70;;
60030;SDS011;45901;47.600;9.890;2024-03-25T09:27:53;1.77;;;0.60;;
60030;SDS011;45901;47.600;9.890;2024-03-25T09:30:20;2.67;;;0.60;;
60030;SDS011;45901;47.600;9.890;2024-03-25T09:32:47;2.20;;;0.60;;
60030;SDS011;45901;47.600;9.890;2024-03-25T09:35:13;3.10;;;0.47;;
60030;SDS011;45901;47.600;9.890;2024-03-25T09:37:39;1.10;;;0.53;;
60030;SDS011;45901;47.600;9.890;2024-03-25T09:40:06;1.70;;;0.67;;
60030;SDS011;45901;47.600;9.890;2024-03-25T09:42:33;2.83;;;0.70;;
60030;SDS011;45901;47.600;9.890;2024-03-25T09:45:07;3.17;;;1.17;;
60030;SDS011;45901;47.600;9.890;2024-03-25T09:47:36;3.50;;;0.80;;
60030;SDS011;45901;47.600;9.890;2024-03-25T09:50:05;1.03;;;0.50;;
60030;SDS011;45901;47.600;9.890;2024-03-25T09:52:33;2.50;;;0.60;;
60030;SDS011;45901;47.600;9.890;2024-03-25T09:55:00;3.50;;;0.90;;
60030;SDS011;45901;47.600;9.890;2024-03-25T09:57:26;2.83;;;0.70;;
60030;SDS011;45901;47.600;9.890;2024-03-25T09:59:53;0.77;;;0.40;;
60030;SDS011;45901;47.600;9.890;2024-03-25T10:02:21;2.03;;;0.57;;
60030;SDS011;45901;47.600;9.890;2024-03-25T10:04:49;1.60;;;0.50;;
60030;SDS011;45901;47.600;9.890;2024-03-25T10:07:20;2.13;;;0.57;;
60030;SDS011;45901;47.600;9.890;2024-03-25T10:09:48;1.03;;;0.50;;
60030;SDS011;45901;47.600;9.890;2024-03-25T10:12:14;1.13;;;0.53;;
60030;SDS011;45901;47.600;9.890;2024-03-25T10:14:41;3.03;;;0.50;;
60030;SDS011;45901;47.600;9.890;2024-03-25T10:17:07;3.93;;;0.80;;
60030;SDS011;45901;47.600;9.890;2024-03-25T10:19:34;1.43;;;0.50;;
60030;SDS011;45901;47.600;9.890;2024-03-25T10:22:02;1.20;;;0.63;;
60030;SDS011;45901;47.600;9.890;2024-03-25T10:24:37;1.60;;;0.60;;
60030;SDS011;45901;47.600;9.890;2024-03-25T10:27:04;3.07;;;0.70;;
60030;SDS011;45901;47.600;9.890;2024-03-25T10:29:31;2.10;;;0.50;;
60030;SDS011;45901;47.600;9.890;2024-03-25T10:32:00;4.80;;;0.50;;
60030;SDS011;45901;47.600;9.890;2024-03-25T10:34:27;1.90;;;0.50;;
60030;SDS011;45901;47.600;9.890;2024-03-25T10:36:57;1.00;;;0.40;;
60030;SDS011;45901;47.600;9.890;2024-03-25T10:39:27;1.17;;;0.40;;
60030;SDS011;45901;47.600;9.890;2024-03-25T10:41:58;1.90;;;0.40;;
60030;SDS011;45901;47.600;9.890;2024-03-25T10:44:26;2.97;;;0.53;;
60030;SDS011;45901;47.600;9.890;2024-03-25T10:46:55;2.67;;;0.90;;
60030;SDS011;45901;47.600;9.890;2024-03-25T10:49:27;0.53;;;0.33;;
60030;SDS011;45901;47.600;9.890;2024-03-25T10:52:01;1.30;;;0.30;;
60030;SDS011;45901;47.600;9.890;2024-03-25T10:54:31;3.13;;;0.53;;
60030;SDS011;45901;47.600;9.890;2024-03-25T10:56:58;1.30;;;0.50;;
60030;SDS011;45901;47.600;9.890;2024-03-25T10:59:28;1.13;;;0.40;;
60030;SDS011;45901;47.600;9.890;2024-03-25T11:01:56;1.17;;;0.40;;
60030;SDS011;45901;47.600;9.890;2024-03-25T11:04:22;1.83;;;0.50;;
60030;SDS011;45901;47.600;9.890;2024-03-25T11:06:49;2.27;;;0.80;;
60030;SDS011;45901;47.600;9.890;2024-03-25T11:09:22;4.53;;;0.80;;
60030;SDS011;45901;47.600;9.890;2024-03-25T11:11:52;1.50;;;0.53;;
60030;SDS011;45901;47.600;9.890;2024-03-25T11:14:18;2.67;;;0.50;;
60030;SDS011;45901;47.600;9.890;2024-03-25T11:16:50;1.90;;;0.60;;
60030;SDS011;45901;47.600;9.890;2024-03-25T11:19:17;2.00;;;0.60;;
60030;SDS011;45901;47.600;9.890;2024-03-25T11:21:44;9.17;;;0.60;;
60030;SDS011;45901;47.600;9.890;2024-03-25T11:24:11;2.80;;;0.70;;
60030;SDS011;45901;47.600;9.890;2024-03-25T11:26:40;0.93;;;0.40;;
60030;SDS011;45901;47.600;9.890;2024-03-25T11:29:09;2.37;;;0.50;;
60030;SDS011;45901;47.600;9.890;2024-03-25T11:31:37;1.13;;;0.33;;
60030;SDS011;45901;47.600;9.890;2024-03-25T11:34:04;0.90;;;0.40;;
60030;SDS011;45901;47.600;9.890;2024-03-25T11:36:31;0.70;;;0.40;;
60030;SDS011;45901;47.600;9.890;2024-03-25T11:38:58;0.97;;;0.40;;
60030;SDS011;45901;47.600;9.890;2024-03-25T11:41:25;1.77;;;0.50;;
60030;SDS011;45901;47.600;9.890;2024-03-25T11:43:52;2.17;;;0.50;;
60030;SDS011;45901;47.600;9.890;2024-03-25T11:46:24;1.47;;;0.30;;
60030;SDS011;45901;47.600;9.890;2024-03-25T11:48:51;0.97;;;0.23;;
60030;SDS011;45901;47.600;9.890;2024-03-25T11:51:18;0.40;;;0.20;;
60030;SDS011;45901;47.600;9.890;2024-03-25T11:53:45;0.83;;;0.30;;
60030;SDS011;45901;47.600;9.890;2024-03-25T11:56:11;0.20;;;0.20;;
60030;SDS011;45901;47.600;9.890;2024-03-25T11:58:41;0.40;;;0.30;;
60030;SDS011;45901;47.600;9.890;2024-03-25T12:01:08;0.70;;;0.30;;
60030;SDS011;45901;47.600;9.890;2024-03-25T12:03:35;0.73;;;0.30;;
60030;SDS011;45901;47.600;9.890;2024-03-25T12:06:02;2.63;;;0.30;;
60030;SDS011;45901;47.600;9.890;2024-03-25T12:08:29;1.93;;;0.27;;
60030;SDS011;45901;47.600;9.890;2024-03-25T12:10:56;0.60;;;0.30;;
60030;SDS011;45901;47.600;9.890;2024-03-25T12:13:43;0.60;;;0.37;;
60030;SDS011;45901;47.600;9.890;2024-03-25T12:16:10;1.30;;;0.20;;
60030;SDS011;45901;47.600;9.890;2024-03-25T12:18:39;0.63;;;0.40;;
60030;SDS011;45901;47.600;9.890;2024-03-25T12:21:06;1.13;;;0.30;;
60030;SDS011;45901;47.600;9.890;2024-03-25T12:23:33;1.53;;;0.30;;
60030;SDS011;45901;47.600;9.890;2024-03-25T12:25:59;0.43;;;0.20;;
60030;SDS011;45901;47.600;9.890;2024-03-25T12:28:27;3.30;;;0.53;;
60030;SDS011;45901;47.600;9.890;2024-03-25T12:30:54;0.20;;;0.20;;
60030;SDS011;45901;47.600;9.890;2024-03-25T12:33:21;1.53;;;0.30;;
60030;SDS011;45901;47.600;9.890;2024-03-25T12:35:49;0.20;;;0.20;;
60030;SDS011;45901;47.600;9.890;2024-03-25T12:38:23;2.07;;;0.37;;
60030;SDS011;45901;47.600;9.890;2024-03-25T12:40:51;1.03;;;0.30;;
60030;SDS011;45901;47.600;9.890;2024-03-25T12:43:18;1.90;;;0.20;;
60030;SDS011;45901;47.600;9.890;2024-03-25T12:45:44;1.80;;;0.40;;
60030;SDS011;45901;47.600;9.890;2024-03-25T12:48:10;0.63;;;0.23;;
60030;SDS011;45901;47.600;9.890;2024-03-25T12:50:37;0.67;;;0.20;;
60030;SDS011;45901;47.600;9.890;2024-03-25T12:53:05;0.57;;;0.20;;
60030;SDS011;45901;47.600;9.890;2024-03-25T12:55:31;0.60;;;0.20;;
60030;SDS011;45901;47.600;9.890;2024-03-25T12:57:57;0.43;;;0.20;;
60030;SDS011;45901;47.600;9.890;2024-03-25T13:00:24;0.73;;;0.23;;
60030;SDS011;45901;47.600;9.890;2024-03-25T13:02:50;0.70;;;0.30;;
60030;SDS011;45901;47.600;9.890;2024-03-25T13:05:17;1.50;;;0.20;;
60030;SDS011;45901;47.600;9.890;2024-03-25T13:07:43;0.57;;;0.20;;
60030;SDS011;45901;47.600;9.890;2024-03-25T13:10:10;0.77;;;0.20;;
60030;SDS011;45901;47.600;9.890;2024-03-25T13:12:37;0.83;;;0.20;;
60030;SDS011;45901;47.600;9.890;2024-03-25T13:15:03;0.63;;;0.30;;
60030;SDS011;45901;47.600;9.890;2024-03-25T13:17:31;0.27;;;0.20;;
60030;SDS011;45901;47.600;9.890;2024-03-25T13:19:57;0.50;;;0.27;;
60030;SDS011;45901;47.600;9.890;2024-03-25T13:22:23;3.13;;;0.30;;
60030;SDS011;45901;47.600;9.890;2024-03-25T13:24:49;0.70;;;0.30;;
60030;SDS011;45901;47.600;9.890;2024-03-25T13:27:17;0.60;;;0.23;;
60030;SDS011;45901;47.600;9.890;2024-03-25T13:29:43;0.30;;;0.30;;
60030;SDS011;45901;47.600;9.890;2024-03-25T13:32:09;0.57;;;0.33;;
60030;SDS011;45901;47.600;9.890;2024-03-25T13:34:36;2.43;;;0.30;;
60030;SDS011;45901;47.600;9.890;2024-03-25T13:37:02;0.70;;;0.30;;
60030;SDS011;45901;47.600;9.890;2024-03-25T13:39:28;0.70;;;0.30;;
60030;SDS011;45901;47.600;9.890;2024-03-25T13:41:55;1.27;;;0.20;;
60030;SDS011;45901;47.600;9.890;2024-03-25T13:44:22;0.97;;;0.10;;
60030;SDS011;45901;47.600;9.890;2024-03-25T13:46:49;1.57;;;0.37;;
60030;SDS011;45901;47.600;9.890;2024-03-25T13:49:15;0.63;;;0.33;;
60030;SDS011;45901;47.600;9.890;2024-03-25T13:51:41;6.00;;;3.80;;
60030;SDS011;45901;47.600;9.890;2024-03-25T13:54:07;3.67;;;2.33;;
60030;SDS011;45901;47.600;9.890;2024-03-25T13:56:34;1.00;;;0.40;;
60030;SDS011;45901;47.600;9.890;2024-03-25T13:59:00;0.77;;;0.20;;
60030;SDS011;45901;47.600;9.890;2024-03-25T14:01:28;0.37;;;0.17;;
60030;SDS011;45901;47.600;9.890;2024-03-25T14:03:54;0.20;;;0.20;;
60030;SDS011;45901;47.600;9.890;2024-03-25T14:06:20;0.40;;;0.23;;
60030;SDS011;45901;47.600;9.890;2024-03-25T14:08:46;4.43;;;0.30;;
60030;SDS011;45901;47.600;9.890;2024-03-25T14:11:13;0.30;;;0.20;;
60030;SDS011;45901;47.600;9.890;2024-03-25T14:13:39;2.17;;;0.30;;
60030;SDS011;45901;47.600;9.890;2024-03-25T14:16:05;0.57;;;0.20;;
60030;SDS011;45901;47.600;9.890;2024-03-25T14:18:33;0.67;;;0.23;;
60030;SDS011;45901;47.600;9.890;2024-03-25T14:20:59;1.30;;;0.47;;
60030;SDS011;45901;47.600;9.890;2024-03-25T14:23:26;4.07;;;2.07;;
60030;SDS011;45901;47.600;9.890;2024-03-25T14:25:52;5.80;;;3.00;;
60030;SDS011;45901;47.600;9.890;2024-03-25T14:28:18;1.07;;;0.50;;
60030;SDS011;45901;47.600;9.890;2024-03-25T14:30:44;2.20;;;0.30;;
60030;SDS011;45901;47.600;9.890;2024-03-25T14:33:11;1.23;;;0.50;;
60030;SDS011;45901;47.600;9.890;2024-03-25T14:35:39;3.13;;;0.60;;
60030;SDS011;45901;47.600;9.890;2024-03-25T14:38:06;0.60;;;0.33;;
60030;SDS011;45901;47.600;9.890;2024-03-25T14:40:37;0.80;;;0.43;;
60030;SDS011;45901;47.600;9.890;2024-03-25T14:43:03;2.90;;;0.57;;
60030;SDS011;45901;47.600;9.890;2024-03-25T14:45:30;0.87;;;0.40;;
60030;SDS011;45901;47.600;9.890;2024-03-25T14:47:56;0.60;;;0.37;;